Time;durP1;ratioP1;P1;durP2;ratioP2;P2;SDS_P1;SDS_P2;PMS_P1;PMS_P2;Temp;Humidity;BMP_temperature;BMP_pressure;BME280_temperature;BME280_humidity;BME280_pressure;Samples;Min_cycle;Max_cycle;Signal;HPM_P1;HPM_P2
2022/03/25 00:00:12;;;;;;;;;;;;;;;;;;2210475;59;1179;-68
2022/03/25 00:02:45;;;;;;;;;;;;;;;;;;2210307;67;1111;-69
2022/03/25 00:05:19;;;;;;;;;;;;;;;;;;2211065;67;1275;-68
2022/03/25 00:07:52;;;;;;;;;;;;;;;;;;2209781;67;1932;-68
2022/03/25 00:10:28;;;;;;;;;;;;;;;;;;2210532;67;1347;-68
2022/03/25 00:13:01;;;;;;;;;;;;;;;;;;2210490;59;2122;-68
2022/03/25 00:15:35;;;;;;;;;;;;;;;;;;2209821;59;1145;-69
2022/03/25 00:18:08;;;;;;;;;;;;;;;;;;2209695;67;1198;-68
2022/03/25 00:20:41;;;;;;;;;;;;;;;;;;2210707;67;1155;-68
2022/03/25 00:23:14;;;;;;;;;;;;;;;;;;2210561;67;1260;-68
2022/03/25 00:25:50;;;;;;;;;;;;;;;;;;2211878;53;3487;-72
2022/03/25 00:28:23;;;;;;;;;;;;;;;;;;2208222;59;1934;-72
2022/03/25 00:30:57;;;;;;;;;;;;;;;;;;2208031;59;1746;-72
2022/03/25 00:33:31;;;;;;;;;;;;;;;;;;2207162;67;1202;-72
2022/03/25 00:36:04;;;;;;;;;;;;;;;;;;2207653;59;2044;-72
2022/03/25 00:38:38;;;;;;;;;;;;;;;;;;2207714;67;1200;-72
2022/03/25 00:41:16;;;;;;;;;;;;;;;;;;2208178;67;1312;-72
2022/03/25 00:43:50;;;;;;;;;;;;;;;;;;2206885;67;1311;-72
2022/03/25 00:46:23;;;;;;;;;;;;;;;;;;2203574;59;1689;-72
2022/03/25 00:48:56;;;;;;;;;;;;;;;;;;2207656;59;1933;-72
2022/03/25 00:51:30;;;;;;;;;;;;;;;;;;2207353;59;1353;-72
2022/03/25 00:54:03;;;;;;;;;;;;;;;;;;2203913;67;1126;-72
2022/03/25 00:56:39;;;;;;;;;;;;;;;;;;2208278;59;1251;-72
2022/03/25 00:59:14;;;;;;;;;;;;;;;;;;2207513;67;1097;-72
2022/03/25 01:01:47;;;;;;;;;;;;;;;;;;2208400;59;1295;-72
2022/03/25 01:04:20;;;;;;;;;;;;;;;;;;2208172;59;1228;-72
2022/03/25 01:06:54;;;;;;;;;;;;;;;;;;2207037;59;2031;-72
2022/03/25 01:09:27;;;;;;;;;;;;;;;;;;2207983;67;1917;-72
2022/03/25 01:12:03;;;;;;;;;;;;;;;;;;2207551;59;1891;-72
2022/03/25 01:14:36;;;;;;;;;;;;;;;;;;2207956;67;1172;-72
2022/03/25 01:17:10;;;;;;;;;;;;;;;;;;2203982;67;1238;-72
2022/03/25 01:19:43;;;;;;;;;;;;;;;;;;2207564;67;1151;-72
2022/03/25 01:22:17;;;;;;;;;;;;;;;;;;2207457;59;1471;-72
2022/03/25 01:24:50;;;;;;;;;;;;;;;;;;2207578;67;1166;-72
2022/03/25 01:27:26;;;;;;;;;;;;;;;;;;2203741;59;1655;-72
2022/03/25 01:29:59;;;;;;;;;;;;;;;;;;2207623;67;1980;-72
2022/03/25 01:32:34;;;;;;;;;;;;;;;;;;2207912;67;1155;-72
2022/03/25 01:35:09;;;;;;;;;;;;;;;;;;2207308;67;1185;-72
2022/03/25 01:37:43;;;;;;;;;;;;;;;;;;2207185;59;2047;-72
2022/03/25 01:40:16;;;;;;;;;;;;;;;;;;2207697;67;1189;-72
2022/03/25 01:42:54;;;;;;;;;;;;;;;;;;2204317;67;1269;-72
2022/03/25 01:45:32;;;;;;;;;;;;;;;;;;2207848;59;1168;-72
2022/03/25 01:48:09;;;;;;;;;;;;;;;;;;2207143;59;2103;-72
2022/03/25 01:50:43;;;;;;;;;;;;;;;;;;2207452;67;1285;-72
2022/03/25 01:53:17;;;;;;;;;;;;;;;;;;2207653;67;1348;-72
2022/03/25 01:55:52;;;;;;;;;;;;;;;;;;2208051;67;1235;-72
2022/03/25 01:58:29;;;;;;;;;;;;;;;;;;2207765;59;1581;-72
2022/03/25 02:01:04;;;;;;;;;;;;;;;;;;2207691;59;1215;-72
2022/03/25 02:03:37;;;;;;;;;;;;;;;;;;2207462;67;1157;-72
2022/03/25 02:06:11;;;;;;;;;;;;;;;;;;2207873;59;1632;-72
2022/03/25 02:08:44;;;;;;;;;;;;;;;;;;2207392;67;1996;-72
2022/03/25 02:11:17;;;;;;;;;;;;;;;;;;2207509;67;1303;-72
2022/03/25 02:13:53;;;;;;;;;;;;;;;;;;2207330;67;2316;-72
2022/03/25 02:16:35;;;;;;;;;;;;;;;;;;2207856;59;1252;-72
2022/03/25 02:19:09;;;;;;;;;;;;;;;;;;2203955;67;1655;-72
2022/03/25 02:21:45;;;;;;;;;;;;;;;;;;2202968;67;1136;-72
2022/03/25 02:24:19;;;;;;;;;;;;;;;;;;2207611;67;1172;-72
2022/03/25 02:26:52;;;;;;;;;;;;;;;;;;2207510;59;1653;-72
2022/03/25 02:29:26;;;;;;;;;;;;;;;;;;2206193;67;2004;-72
2022/03/25 02:31:59;;;;;;;;;;;;;;;;;;2207632;67;1373;-72
2022/03/25 02:34:32;;;;;;;;;;;;;;;;;;2207673;59;1188;-72
2022/03/25 02:37:09;;;;;;;;;;;;;;;;;;2206806;59;1855;-72
2022/03/25 02:39:42;;;;;;;;;;;;;;;;;;2207727;67;1232;-72
2022/03/25 02:42:15;;;;;;;;;;;;;;;;;;2207937;67;1228;-72
2022/03/25 02:44:48;;;;;;;;;;;;;;;;;;2207646;67;1240;-72
2022/03/25 02:47:22;;;;;;;;;;;;;;;;;;2206681;59;1564;-72
2022/03/25 02:49:55;;;;;;;;;;;;;;;;;;2207533;67;1921;-71
2022/03/25 02:52:31;;;;;;;;;;;;;;;;;;2207803;59;1636;-72
2022/03/25 02:55:04;;;;;;;;;;;;;;;;;;2207023;67;1102;-72
2022/03/25 02:57:37;;;;;;;;;;;;;;;;;;2207892;67;1279;-72
2022/03/25 03:00:12;;;;;;;;;;;;;;;;;;2203958;67;1114;-72
2022/03/25 03:02:45;;;;;;;;;;;;;;;;;;2207782;59;1578;-72
2022/03/25 03:05:19;;;;;;;;;;;;;;;;;;2207097;67;1284;-72
2022/03/25 03:07:55;;;;;;;;;;;;;;;;;;2207786;59;1650;-72
2022/03/25 03:10:29;;;;;;;;;;;;;;;;;;2207473;67;1947;-72
2022/03/25 03:13:02;;;;;;;;;;;;;;;;;;2207860;59;1875;-72
2022/03/25 03:15:36;;;;;;;;;;;;;;;;;;2207792;67;1250;-72
2022/03/25 03:18:10;;;;;;;;;;;;;;;;;;2207519;67;1248;-72
2022/03/25 03:20:43;;;;;;;;;;;;;;;;;;2207730;59;1079;-72
2022/03/25 03:23:19;;;;;;;;;;;;;;;;;;2203578;59;1562;-72
2022/03/25 03:25:53;;;;;;;;;;;;;;;;;;2202971;59;1700;-72
2022/03/25 03:28:26;;;;;;;;;;;;;;;;;;2208243;67;1305;-72
2022/03/25 03:30:59;;;;;;;;;;;;;;;;;;2208322;67;1932;-72
2022/03/25 03:33:32;;;;;;;;;;;;;;;;;;2208966;67;1101;-72
2022/03/25 03:36:06;;;;;;;;;;;;;;;;;;2208306;59;2032;-72
2022/03/25 03:38:42;;;;;;;;;;;;;;;;;;2208023;67;1267;-72
2022/03/25 03:41:16;;;;;;;;;;;;;;;;;;2205608;67;1269;-72
2022/03/25 03:43:49;;;;;;;;;;;;;;;;;;2209199;67;1326;-72
2022/03/25 03:46:22;;;;;;;;;;;;;;;;;;2208511;59;1697;-72
2022/03/25 03:48:56;;;;;;;;;;;;;;;;;;2204622;67;1937;-72
2022/03/25 03:51:29;;;;;;;;;;;;;;;;;;2204716;67;1218;-72
2022/03/25 03:54:05;;;;;;;;;;;;;;;;;;2207746;59;1089;-72
2022/03/25 03:56:38;;;;;;;;;;;;;;;;;;2208082;67;1306;-72
2022/03/25 03:59:11;;;;;;;;;;;;;;;;;;2208348;67;1212;-72
2022/03/25 04:01:45;;;;;;;;;;;;;;;;;;2207915;67;1195;-72
2022/03/25 04:04:18;;;;;;;;;;;;;;;;;;2208324;67;1141;-71
2022/03/25 04:06:52;;;;;;;;;;;;;;;;;;2207005;59;1758;-72
2022/03/25 04:09:28;;;;;;;;;;;;;;;;;;2208167;67;1989;-72
2022/03/25 04:12:01;;;;;;;;;;;;;;;;;;2203804;59;1816;-72
2022/03/25 04:14:34;;;;;;;;;;;;;;;;;;2207663;67;1073;-72
2022/03/25 04:17:07;;;;;;;;;;;;;;;;;;2207656;67;1142;-72
2022/03/25 04:19:41;;;;;;;;;;;;;;;;;;2207987;67;1192;-72
2022/03/25 04:22:14;;;;;;;;;;;;;;;;;;2208443;67;1208;-71
2022/03/25 04:24:50;;;;;;;;;;;;;;;;;;2207601;59;1097;-72
2022/03/25 04:27:23;;;;;;;;;;;;;;;;;;2203065;59;1678;-72
2022/03/25 04:29:57;;;;;;;;;;;;;;;;;;2207884;67;1932;-72
2022/03/25 04:32:31;;;;;;;;;;;;;;;;;;2204318;67;1436;-72
2022/03/25 04:35:04;;;;;;;;;;;;;;;;;;2208056;67;1185;-72
2022/03/25 04:37:38;;;;;;;;;;;;;;;;;;2207649;59;2099;-71
2022/03/25 04:40:15;;;;;;;;;;;;;;;;;;2208326;67;1184;-72
2022/03/25 04:42:49;;;;;;;;;;;;;;;;;;2208033;67;1185;-71
2022/03/25 04:45:23;;;;;;;;;;;;;;;;;;2208034;67;1175;-72
2022/03/25 04:47:56;;;;;;;;;;;;;;;;;;2208353;59;1613;-72
2022/03/25 04:50:30;;;;;;;;;;;;;;;;;;2208045;59;1920;-72
2022/03/25 04:53:03;;;;;;;;;;;;;;;;;;2208530;67;1197;-72
2022/03/25 04:55:39;;;;;;;;;;;;;;;;;;2207798;59;1255;-72
2022/03/25 04:58:12;;;;;;;;;;;;;;;;;;2207385;67;1174;-72
2022/03/25 05:00:45;;;;;;;;;;;;;;;;;;2208272;67;1339;-71
2022/03/25 05:03:19;;;;;;;;;;;;;;;;;;2208342;67;1188;-72
2022/03/25 05:05:52;;;;;;;;;;;;;;;;;;2208133;59;1536;-72
2022/03/25 05:08:25;;;;;;;;;;;;;;;;;;2207352;59;1256;-72
2022/03/25 05:11:01;;;;;;;;;;;;;;;;;;2208407;59;1905;-72
2022/03/25 05:13:34;;;;;;;;;;;;;;;;;;2207489;59;1912;-72
2022/03/25 05:16:08;;;;;;;;;;;;;;;;;;2208272;67;1231;-72
2022/03/25 05:18:41;;;;;;;;;;;;;;;;;;2207750;67;1102;-72
2022/03/25 05:21:14;;;;;;;;;;;;;;;;;;2207446;59;1221;-72
2022/03/25 05:23:48;;;;;;;;;;;;;;;;;;2207757;59;1610;-71
2022/03/25 05:26:23;;;;;;;;;;;;;;;;;;2207277;59;1556;-71
2022/03/25 05:28:57;;;;;;;;;;;;;;;;;;2207830;59;1197;-71
2022/03/25 05:31:30;;;;;;;;;;;;;;;;;;2207130;67;2003;-71
2022/03/25 05:34:03;;;;;;;;;;;;;;;;;;2204035;67;1165;-71
2022/03/25 05:36:37;;;;;;;;;;;;;;;;;;2207626;59;2108;-71
2022/03/25 05:39:11;;;;;;;;;;;;;;;;;;2207665;59;1256;-71
2022/03/25 05:41:47;;;;;;;;;;;;;;;;;;2207892;67;1307;-71
2022/03/25 05:44:20;;;;;;;;;;;;;;;;;;2207329;67;1284;-71
2022/03/25 05:46:54;;;;;;;;;;;;;;;;;;2207268;59;1689;-71
2022/03/25 05:49:27;;;;;;;;;;;;;;;;;;2207601;67;2237;-71
2022/03/25 05:52:00;;;;;;;;;;;;;;;;;;2207148;60;1068;-72
2022/03/25 05:54:34;;;;;;;;;;;;;;;;;;2207152;67;1200;-71
2022/03/25 05:57:10;;;;;;;;;;;;;;;;;;2204446;67;1308;-71
2022/03/25 05:59:43;;;;;;;;;;;;;;;;;;2207474;67;1263;-71
2022/03/25 06:02:17;;;;;;;;;;;;;;;;;;2208068;67;1214;-71
2022/03/25 06:04:50;;;;;;;;;;;;;;;;;;2207694;67;1281;-71
2022/03/25 06:07:24;;;;;;;;;;;;;;;;;;2207422;59;1591;-71
2022/03/25 06:09:58;;;;;;;;;;;;;;;;;;2207228;67;1937;-71
2022/03/25 06:12:34;;;;;;;;;;;;;;;;;;2207042;59;2001;-71
2022/03/25 06:15:08;;;;;;;;;;;;;;;;;;2207489;67;1127;-71
2022/03/25 06:17:45;;;;;;;;;;;;;;;;;;2207498;59;1280;-72
2022/03/25 06:20:20;;;;;;;;;;;;;;;;;;2207591;67;1259;-72
2022/03/25 06:22:53;;;;;;;;;;;;;;;;;;2207475;67;1271;-72
2022/03/25 06:25:27;;;;;;;;;;;;;;;;;;2206571;59;1084;-72
2022/03/25 06:28:04;;;;;;;;;;;;;;;;;;2203001;59;1739;-72
2022/03/25 06:30:39;;;;;;;;;;;;;;;;;;2206894;67;1981;-72
2022/03/25 06:33:12;;;;;;;;;;;;;;;;;;2207760;67;1278;-72
2022/03/25 06:35:46;;;;;;;;;;;;;;;;;;2207634;67;2442;-72
2022/03/25 06:38:19;;;;;;;;;;;;;;;;;;2207522;67;1208;-72
2022/03/25 06:40:52;;;;;;;;;;;;;;;;;;2203583;59;1677;-72
2022/03/25 06:43:28;;;;;;;;;;;;;;;;;;2207624;67;1448;-72
2022/03/25 06:46:01;;;;;;;;;;;;;;;;;;2207171;59;1693;-72
2022/03/25 06:48:35;;;;;;;;;;;;;;;;;;2203702;67;1473;-72
2022/03/25 06:51:09;;;;;;;;;;;;;;;;;;2207218;67;1943;-71
2022/03/25 06:53:44;;;;;;;;;;;;;;;;;;2207279;59;1175;-72
2022/03/25 06:56:17;;;;;;;;;;;;;;;;;;2207860;67;1263;-72
2022/03/25 06:58:54;;;;;;;;;;;;;;;;;;2207896;67;1243;-72
2022/03/25 07:01:31;;;;;;;;;;;;;;;;;;2206062;59;1214;-72
2022/03/25 07:04:05;;;;;;;;;;;;;;;;;;2207206;67;1228;-72
2022/03/25 07:06:39;;;;;;;;;;;;;;;;;;2207387;59;1634;-72
2022/03/25 07:09:13;;;;;;;;;;;;;;;;;;2207862;59;1607;-71
2022/03/25 07:11:47;;;;;;;;;;;;;;;;;;2208261;59;2021;-72
2022/03/25 07:14:22;;;;;;;;;;;;;;;;;;2208170;67;1204;-72
2022/03/25 07:16:56;;;;;;;;;;;;;;;;;;2208030;59;1627;-72
2022/03/25 07:19:29;;;;;;;;;;;;;;;;;;2207613;67;1171;-72
2022/03/25 07:22:02;;;;;;;;;;;;;;;;;;2208030;67;1141;-72
2022/03/25 07:24:35;;;;;;;;;;;;;;;;;;2203511;67;1216;-72
2022/03/25 07:27:08;;;;;;;;;;;;;;;;;;2207510;59;1753;-72
2022/03/25 07:29:44;;;;;;;;;;;;;;;;;;2207658;67;1279;-72
2022/03/25 07:32:18;;;;;;;;;;;;;;;;;;2207966;67;1980;-72
2022/03/25 07:34:51;;;;;;;;;;;;;;;;;;2207735;67;1252;-72
2022/03/25 07:37:24;;;;;;;;;;;;;;;;;;2207564;59;2023;-72
2022/03/25 07:39:57;;;;;;;;;;;;;;;;;;2208162;59;1161;-72
2022/03/25 07:42:30;;;;;;;;;;;;;;;;;;2207281;59;1690;-72
2022/03/25 07:45:08;;;;;;;;;;;;;;;;;;2208050;59;1207;-72
2022/03/25 07:47:42;;;;;;;;;;;;;;;;;;2207125;59;1583;-72
2022/03/25 07:50:17;;;;;;;;;;;;;;;;;;2208130;67;1940;-71
2022/03/25 07:52:50;;;;;;;;;;;;;;;;;;2204398;67;1257;-72
2022/03/25 07:55:24;;;;;;;;;;;;;;;;;;2208078;67;1283;-72
2022/03/25 07:57:57;;;;;;;;;;;;;;;;;;2208603;67;1276;-72
2022/03/25 08:00:33;;;;;;;;;;;;;;;;;;2208115;59;1362;-72
2022/03/25 08:03:07;;;;;;;;;;;;;;;;;;2208344;59;1180;-72
2022/03/25 08:05:40;;;;;;;;;;;;;;;;;;2207541;59;1563;-72
2022/03/25 08:08:14;;;;;;;;;;;;;;;;;;2208170;67;1146;-72
2022/03/25 08:10:47;;;;;;;;;;;;;;;;;;2208573;67;1914;-72
2022/03/25 08:13:20;;;;;;;;;;;;;;;;;;2207963;59;1992;-72
2022/03/25 08:15:56;;;;;;;;;;;;;;;;;;2208345;59;1239;-72
2022/03/25 08:18:29;;;;;;;;;;;;;;;;;;2207823;67;1302;-72
2022/03/25 08:21:02;;;;;;;;;;;;;;;;;;2208331;67;1126;-72
2022/03/25 08:29:13;;;;;;;;;;;;;;;;;;2208050;67;1050;-72
2022/03/25 08:31:49;;;;;;;;;;;;;;;;;;2208304;67;1943;-72
2022/03/25 08:34:22;;;;;;;;;;;;;;;;;;2207831;67;1165;-72
2022/03/25 08:36:55;;;;;;;;;;;;;;;;;;2207571;59;2023;-72
2022/03/25 08:39:29;;;;;;;;;;;;;;;;;;2207998;59;1200;-72
2022/03/25 08:42:02;;;;;;;;;;;;;;;;;;2208238;67;1188;-72
2022/03/25 08:44:36;;;;;;;;;;;;;;;;;;2207333;67;1126;-72
2022/03/25 08:47:11;;;;;;;;;;;;;;;;;;2207456;59;1641;-72
2022/03/25 08:49:45;;;;;;;;;;;;;;;;;;2207924;67;1116;-72
2022/03/25 08:52:20;;;;;;;;;;;;;;;;;;2207821;59;1927;-72
2022/03/25 08:54:54;;;;;;;;;;;;;;;;;;2208615;67;1240;-72
2022/03/25 08:57:27;;;;;;;;;;;;;;;;;;2208120;67;1303;-72
2022/03/25 09:00:01;;;;;;;;;;;;;;;;;;2207564;67;1141;-72
2022/03/25 09:02:36;;;;;;;;;;;;;;;;;;2208213;59;1650;-72
2022/03/25 09:05:10;;;;;;;;;;;;;;;;;;2208546;67;1295;-72
2022/03/25 09:07:44;;;;;;;;;;;;;;;;;;2208352;59;1897;-72
2022/03/25 09:10:17;;;;;;;;;;;;;;;;;;2207575;67;1160;-73
2022/03/25 09:12:50;;;;;;;;;;;;;;;;;;2207849;59;1924;-72
2022/03/25 09:15:24;;;;;;;;;;;;;;;;;;2207156;67;1173;-72
2022/03/25 09:18:00;;;;;;;;;;;;;;;;;;2207646;67;1163;-72
2022/03/25 09:20:33;;;;;;;;;;;;;;;;;;2207496;59;1228;-72
2022/03/25 09:23:06;;;;;;;;;;;;;;;;;;2206821;59;1756;-72
2022/03/25 09:25:39;;;;;;;;;;;;;;;;;;2207769;59;1600;-72
2022/03/25 09:28:12;;;;;;;;;;;;;;;;;;2206211;59;1509;-72
2022/03/25 09:30:45;;;;;;;;;;;;;;;;;;2207863;67;1922;-72
2022/03/25 09:33:21;;;;;;;;;;;;;;;;;;2206659;59;1615;-72
2022/03/25 09:35:55;;;;;;;;;;;;;;;;;;2207509;59;1888;-72
2022/03/25 09:38:28;;;;;;;;;;;;;;;;;;2207558;59;1275;-72
2022/03/25 09:41:03;;;;;;;;;;;;;;;;;;2207544;67;1135;-72
2022/03/25 09:43:37;;;;;;;;;;;;;;;;;;2206967;59;1721;-72
2022/03/25 09:46:10;;;;;;;;;;;;;;;;;;2207465;59;1758;-72
2022/03/25 09:48:46;;;;;;;;;;;;;;;;;;2204285;67;1244;-72
2022/03/25 09:51:19;;;;;;;;;;;;;;;;;;2207541;59;1929;-72
2022/03/25 09:53:52;;;;;;;;;;;;;;;;;;2204448;67;1295;-72
2022/03/25 09:56:25;;;;;;;;;;;;;;;;;;2204463;67;1305;-72
2022/03/25 09:58:59;;;;;;;;;;;;;;;;;;2207770;59;1200;-72
2022/03/25 10:01:32;;;;;;;;;;;;;;;;;;2207607;67;1078;-72
2022/03/25 10:04:08;;;;;;;;;;;;;;;;;;2207113;67;1219;-72
2022/03/25 10:06:48;;;;;;;;;;;;;;;;;;2204058;59;1719;-72
2022/03/25 10:09:23;;;;;;;;;;;;;;;;;;2207325;67;1241;-72
2022/03/25 10:11:56;;;;;;;;;;;;;;;;;;2207572;59;1981;-72
2022/03/25 10:14:30;;;;;;;;;;;;;;;;;;2207633;67;1271;-72
2022/03/25 10:17:10;;;;;;;;;;;;;;;;;;2207097;67;1167;-72
2022/03/25 10:19:52;;;;;;;;;;;;;;;;;;2207316;59;1685;-72
2022/03/25 10:22:25;;;;;;;;;;;;;;;;;;2203768;59;1725;-72
2022/03/25 10:24:59;;;;;;;;;;;;;;;;;;2206829;67;1270;-72
2022/03/25 10:27:32;;;;;;;;;;;;;;;;;;2207013;59;1722;-72
2022/03/25 10:30:06;;;;;;;;;;;;;;;;;;2203846;67;1335;-72
2022/03/25 10:32:41;;;;;;;;;;;;;;;;;;2203349;67;2010;-72
2022/03/25 10:35:17;;;;;;;;;;;;;;;;;;2207281;67;1306;-73
2022/03/25 10:37:57;;;;;;;;;;;;;;;;;;2207246;59;1949;-72
2022/03/25 10:40:30;;;;;;;;;;;;;;;;;;2208411;59;1097;-72
2022/03/25 10:43:07;;;;;;;;;;;;;;;;;;2207466;67;1173;-72
2022/03/25 10:45:41;;;;;;;;;;;;;;;;;;2207586;59;1671;-72
2022/03/25 10:48:18;;;;;;;;;;;;;;;;;;2207623;59;1727;-72
2022/03/25 10:51:01;;;;;;;;;;;;;;;;;;2207986;67;1248;-72
2022/03/25 10:53:35;;;;;;;;;;;;;;;;;;2204188;59;1583;-72
2022/03/25 10:56:10;;;;;;;;;;;;;;;;;;2208110;59;1310;-72
2022/03/25 10:58:52;;;;;;;;;;;;;;;;;;2208211;59;1262;-72
2022/03/25 11:01:26;;;;;;;;;;;;;;;;;;2208166;67;1132;-72
2022/03/25 11:04:00;;;;;;;;;;;;;;;;;;2208301;67;1287;-72
2022/03/25 11:06:39;;;;;;;;;;;;;;;;;;2203943;59;1670;-73
2022/03/25 11:09:12;;;;;;;;;;;;;;;;;;2208505;67;1181;-72
2022/03/25 11:11:45;;;;;;;;;;;;;;;;;;2207201;59;1945;-72
2022/03/25 11:14:19;;;;;;;;;;;;;;;;;;2204510;67;2192;-72
2022/03/25 11:16:56;;;;;;;;;;;;;;;;;;2207549;67;1336;-72
2022/03/25 11:19:30;;;;;;;;;;;;;;;;;;2208085;67;1229;-72
2022/03/25 11:22:07;;;;;;;;;;;;;;;;;;2208319;67;1121;-72
2022/03/25 11:24:42;;;;;;;;;;;;;;;;;;2204269;67;1652;-72
2022/03/25 11:27:18;;;;;;;;;;;;;;;;;;2207268;59;1721;-72
2022/03/25 11:29:53;;;;;;;;;;;;;;;;;;2203933;67;1158;-72
2022/03/25 11:32:26;;;;;;;;;;;;;;;;;;2207947;59;1915;-72
2022/03/25 11:35:14;;;;;;;;;;;;;;;;;;2208033;67;1038;-72
2022/03/25 11:38:01;;;;;;;;;;;;;;;;;;2207510;59;1933;-72
2022/03/25 11:40:34;;;;;;;;;;;;;;;;;;2207974;67;1197;-72
2022/03/25 11:43:14;;;;;;;;;;;;;;;;;;2208225;67;1161;-72
2022/03/25 11:45:47;;;;;;;;;;;;;;;;;;2204042;59;1590;-72
2022/03/25 11:48:37;;;;;;;;;;;;;;;;;;2204029;67;1236;-72
2022/03/25 11:51:37;;;;;;;;;;;;;;;;;;2208215;67;1322;-72
2022/03/25 11:54:37;;;;;;;;;;;;;;;;;;2202232;67;1338;-73
2022/03/25 11:57:25;;;;;;;;;;;;;;;;;;2200177;67;1325;-72
2022/03/25 12:00:02;;;;;;;;;;;;;;;;;;2207753;59;1402;-72
2022/03/25 12:02:37;;;;;;;;;;;;;;;;;;2207730;60;1244;-72
2022/03/25 12:05:25;;;;;;;;;;;;;;;;;;2207625;67;1292;-72
2022/03/25 12:08:17;;;;;;;;;;;;;;;;;;2207576;59;1904;-72
2022/03/25 12:10:50;;;;;;;;;;;;;;;;;;2208039;59;1348;-72
2022/03/25 12:13:24;;;;;;;;;;;;;;;;;;2207186;59;2024;-72
2022/03/25 12:16:00;;;;;;;;;;;;;;;;;;2207857;67;1310;-72
2022/03/25 12:18:44;;;;;;;;;;;;;;;;;;2207537;67;1214;-72
2022/03/25 12:21:32;;;;;;;;;;;;;;;;;;2207773;67;1146;-72
2022/03/25 12:24:05;;;;;;;;;;;;;;;;;;2207706;67;1189;-72
2022/03/25 12:26:39;;;;;;;;;;;;;;;;;;2209836;53;2038;-68
2022/03/25 12:29:13;;;;;;;;;;;;;;;;;;2213718;66;1178;-68
2022/03/25 12:31:54;;;;;;;;;;;;;;;;;;2214347;59;1944;-68
2022/03/25 12:34:31;;;;;;;;;;;;;;;;;;2213407;66;1184;-68
2022/03/25 12:37:05;;;;;;;;;;;;;;;;;;2214387;59;2200;-68
2022/03/25 12:39:38;;;;;;;;;;;;;;;;;;2208307;67;2251;-69
2022/03/25 12:42:13;;;;;;;;;;;;;;;;;;2213357;59;1240;-69
2022/03/25 12:44:55;;;;;;;;;;;;;;;;;;2211871;59;1521;-68
2022/03/25 12:47:34;;;;;;;;;;;;;;;;;;2211782;59;1890;-69
2022/03/25 12:50:08;;;;;;;;;;;;;;;;;;2211982;67;1099;-68
2022/03/25 12:52:41;;;;;;;;;;;;;;;;;;2212962;67;1926;-69
2022/03/25 12:55:15;;;;;;;;;;;;;;;;;;2213664;59;1294;-68
2022/03/25 12:57:48;;;;;;;;;;;;;;;;;;2213179;59;1145;-68
2022/03/25 13:00:21;;;;;;;;;;;;;;;;;;2213219;59;1281;-69
2022/03/25 13:02:57;;;;;;;;;;;;;;;;;;2213503;67;1350;-69
2022/03/25 13:05:31;;;;;;;;;;;;;;;;;;2213204;67;1157;-68
2022/03/25 13:08:05;;;;;;;;;;;;;;;;;;2212085;59;1886;-68
2022/03/25 13:10:39;;;;;;;;;;;;;;;;;;2208815;67;1097;-68
2022/03/25 13:13:14;;;;;;;;;;;;;;;;;;2214051;59;1971;-68
2022/03/25 13:15:48;;;;;;;;;;;;;;;;;;2212627;67;1143;-68
2022/03/25 13:18:24;;;;;;;;;;;;;;;;;;2212800;67;1266;-68
2022/03/25 13:20:57;;;;;;;;;;;;;;;;;;2212962;67;1088;-69
2022/03/25 13:23:40;;;;;;;;;;;;;;;;;;2222453;66;1561;-67
2022/03/25 13:26:15;;;;;;;;;;;;;;;;;;2217352;66;1396;-68
2022/03/25 13:28:56;;;;;;;;;;;;;;;;;;2217582;59;1450;-68
2022/03/25 13:31:29;;;;;;;;;;;;;;;;;;2213409;67;1293;-67
2022/03/25 13:34:02;;;;;;;;;;;;;;;;;;2216529;59;1596;-67
2022/03/25 13:36:36;;;;;;;;;;;;;;;;;;2216399;67;2246;-67
2022/03/25 13:39:16;;;;;;;;;;;;;;;;;;2217105;59;1173;-68
2022/03/25 13:41:49;;;;;;;;;;;;;;;;;;2217496;67;1980;-67
2022/03/25 13:44:26;;;;;;;;;;;;;;;;;;2216766;66;1156;-67
2022/03/25 13:47:08;;;;;;;;;;;;;;;;;;2216970;59;1715;-67
2022/03/25 13:49:41;;;;;;;;;;;;;;;;;;2217000;67;1075;-67
2022/03/25 13:52:14;;;;;;;;;;;;;;;;;;2217156;67;1244;-67
2022/03/25 13:54:50;;;;;;;;;;;;;;;;;;2217237;59;1172;-67
2022/03/25 13:57:23;;;;;;;;;;;;;;;;;;2216800;62;1240;-67
2022/03/25 14:00:08;;;;;;;;;;;;;;;;;;2217203;67;1360;-67
2022/03/25 14:02:43;;;;;;;;;;;;;;;;;;2216454;59;1929;-67
2022/03/25 14:05:23;;;;;;;;;;;;;;;;;;2216692;59;1163;-67
2022/03/25 14:07:58;;;;;;;;;;;;;;;;;;2216996;59;1638;-67
2022/03/25 14:10:36;;;;;;;;;;;;;;;;;;2217038;59;1128;-67
2022/03/25 14:13:09;;;;;;;;;;;;;;;;;;2216681;67;2255;-67
2022/03/25 14:15:42;;;;;;;;;;;;;;;;;;2216676;59;1088;-67
2022/03/25 14:18:22;;;;;;;;;;;;;;;;;;2217016;67;1240;-67
2022/03/25 14:21:03;;;;;;;;;;;;;;;;;;2216949;67;1096;-67
2022/03/25 14:23:36;;;;;;;;;;;;;;;;;;2213186;59;1928;-67
2022/03/25 14:26:12;;;;;;;;;;;;;;;;;;2213503;59;1416;-67
2022/03/25 14:28:45;;;;;;;;;;;;;;;;;;2209360;59;1987;-67
2022/03/25 14:31:18;;;;;;;;;;;;;;;;;;2213029;67;1245;-68
2022/03/25 14:33:52;;;;;;;;;;;;;;;;;;2212035;67;1150;-67
2022/03/25 14:36:25;;;;;;;;;;;;;;;;;;2210739;67;2357;-67
2022/03/25 14:38:58;;;;;;;;;;;;;;;;;;2211117;67;1198;-67
2022/03/25 14:41:34;;;;;;;;;;;;;;;;;;2210770;66;1936;-67
2022/03/25 14:44:08;;;;;;;;;;;;;;;;;;2206282;67;1086;-67
2022/03/25 14:46:42;;;;;;;;;;;;;;;;;;2210503;59;1666;-68
2022/03/25 14:49:15;;;;;;;;;;;;;;;;;;2211008;59;1257;-67
2022/03/25 14:51:48;;;;;;;;;;;;;;;;;;2211086;67;1131;-68
2022/03/25 14:54:21;;;;;;;;;;;;;;;;;;2210844;66;1248;-67
2022/03/25 14:57:00;;;;;;;;;;;;;;;;;;2211255;59;1226;-67
2022/03/25 14:59:35;;;;;;;;;;;;;;;;;;2210675;59;1073;-68
2022/03/25 15:02:08;;;;;;;;;;;;;;;;;;2211224;59;1933;-67
2022/03/25 15:04:41;;;;;;;;;;;;;;;;;;2211004;67;1055;-67
2022/03/25 15:07:15;;;;;;;;;;;;;;;;;;2210043;59;1776;-67
2022/03/25 15:09:48;;;;;;;;;;;;;;;;;;2211149;66;1044;-68
2022/03/25 15:12:24;;;;;;;;;;;;;;;;;;2211055;59;2002;-67
2022/03/25 15:14:57;;;;;;;;;;;;;;;;;;2211067;58;1258;-67
2022/03/25 15:17:31;;;;;;;;;;;;;;;;;;2210336;66;1261;-67
2022/03/25 15:20:05;;;;;;;;;;;;;;;;;;2210987;66;1227;-67
2022/03/25 15:22:38;;;;;;;;;;;;;;;;;;2210103;59;1940;-67
2022/03/25 15:25:12;;;;;;;;;;;;;;;;;;2211012;66;1142;-68
2022/03/25 15:27:47;;;;;;;;;;;;;;;;;;2210594;59;1850;-67
2022/03/25 15:36:07;;;;;;;;;;;;;;;;;;2202844;59;1919;-67
2022/03/25 15:38:40;;;;;;;;;;;;;;;;;;2210968;67;1086;-67
2022/03/25 15:41:13;;;;;;;;;;;;;;;;;;2210927;67;1152;-68
2022/03/25 15:43:49;;;;;;;;;;;;;;;;;;2210704;59;1967;-68
2022/03/25 15:46:22;;;;;;;;;;;;;;;;;;2210474;59;2131;-67
2022/03/25 15:48:55;;;;;;;;;;;;;;;;;;2210985;66;1000;-67
2022/03/25 15:51:28;;;;;;;;;;;;;;;;;;2210791;67;1295;-67
2022/03/25 15:54:03;;;;;;;;;;;;;;;;;;2210959;59;1151;-67
2022/03/25 15:56:36;;;;;;;;;;;;;;;;;;2210870;59;1229;-67
2022/03/25 15:59:12;;;;;;;;;;;;;;;;;;2210457;59;1504;-67
2022/03/25 16:01:45;;;;;;;;;;;;;;;;;;2210942;60;1202;-67
2022/03/25 16:04:18;;;;;;;;;;;;;;;;;;2210612;67;2201;-67
2022/03/25 16:06:52;;;;;;;;;;;;;;;;;;2209797;59;1852;-67
2022/03/25 16:09:27;;;;;;;;;;;;;;;;;;2210481;67;1256;-67
2022/03/25 16:12:00;;;;;;;;;;;;;;;;;;2211028;59;2018;-67
2022/03/25 16:14:37;;;;;;;;;;;;;;;;;;2210272;67;1143;-67
2022/03/25 16:17:10;;;;;;;;;;;;;;;;;;2206934;59;2268;-67
2022/03/25 16:19:46;;;;;;;;;;;;;;;;;;2210927;67;1193;-67
2022/03/25 16:22:19;;;;;;;;;;;;;;;;;;2209775;59;1928;-67
2022/03/25 16:24:56;;;;;;;;;;;;;;;;;;2210707;67;1223;-66
2022/03/25 16:27:30;;;;;;;;;;;;;;;;;;2210391;59;1744;-69
2022/03/25 16:30:06;;;;;;;;;;;;;;;;;;2210757;67;1161;-69
2022/03/25 16:32:39;;;;;;;;;;;;;;;;;;2210024;59;1607;-70
2022/03/25 16:35:13;;;;;;;;;;;;;;;;;;2210438;59;1672;-70
2022/03/25 16:37:46;;;;;;;;;;;;;;;;;;2210018;59;2007;-69
2022/03/25 16:40:20;;;;;;;;;;;;;;;;;;2210463;59;1783;-70
2022/03/25 16:42:53;;;;;;;;;;;;;;;;;;2210868;67;1930;-69
2022/03/25 16:45:30;;;;;;;;;;;;;;;;;;2210645;59;1290;-69
2022/03/25 16:48:04;;;;;;;;;;;;;;;;;;2210861;59;1864;-70
2022/03/25 16:50:37;;;;;;;;;;;;;;;;;;2210710;67;1199;-70
2022/03/25 16:53:10;;;;;;;;;;;;;;;;;;2210963;66;1258;-69
2022/03/25 16:55:43;;;;;;;;;;;;;;;;;;2210657;67;1195;-69
2022/03/25 16:58:16;;;;;;;;;;;;;;;;;;2211030;66;1233;-69
2022/03/25 17:00:52;;;;;;;;;;;;;;;;;;2211012;67;1327;-70
2022/03/25 17:03:25;;;;;;;;;;;;;;;;;;2210949;59;1932;-70
2022/03/25 17:06:00;;;;;;;;;;;;;;;;;;2210664;59;1247;-70
2022/03/25 17:08:33;;;;;;;;;;;;;;;;;;2210478;59;1641;-70
2022/03/25 17:11:06;;;;;;;;;;;;;;;;;;2210933;59;1117;-69
2022/03/25 17:13:39;;;;;;;;;;;;;;;;;;2206874;59;2038;-70
2022/03/25 17:16:15;;;;;;;;;;;;;;;;;;2207938;67;1317;-70
2022/03/25 17:18:48;;;;;;;;;;;;;;;;;;2210555;67;1257;-69
2022/03/25 17:21:22;;;;;;;;;;;;;;;;;;2206814;66;1472;-70
2022/03/25 17:23:55;;;;;;;;;;;;;;;;;;2210100;67;1929;-69
2022/03/25 17:26:28;;;;;;;;;;;;;;;;;;2210351;59;1740;-70
2022/03/25 17:29:01;;;;;;;;;;;;;;;;;;2210325;67;1115;-69
2022/03/25 17:31:37;;;;;;;;;;;;;;;;;;2206007;67;1290;-69
2022/03/25 17:34:10;;;;;;;;;;;;;;;;;;2207138;67;1292;-70
2022/03/25 17:36:44;;;;;;;;;;;;;;;;;;2210410;59;1826;-69
2022/03/25 17:39:17;;;;;;;;;;;;;;;;;;2211342;67;1210;-70
2022/03/25 17:41:51;;;;;;;;;;;;;;;;;;2210852;66;1199;-69
2022/03/25 17:44:24;;;;;;;;;;;;;;;;;;2210461;67;2047;-69
2022/03/25 17:47:00;;;;;;;;;;;;;;;;;;2210538;59;1872;-69
2022/03/25 17:49:33;;;;;;;;;;;;;;;;;;2210898;67;1206;-69
2022/03/25 17:52:06;;;;;;;;;;;;;;;;;;2211398;66;1309;-69
2022/03/25 17:54:39;;;;;;;;;;;;;;;;;;2210637;67;1155;-69
2022/03/25 17:57:12;;;;;;;;;;;;;;;;;;2210844;66;1206;-69
2022/03/25 17:59:45;;;;;;;;;;;;;;;;;;2210578;59;1177;-69
2022/03/25 18:02:21;;;;;;;;;;;;;;;;;;2210728;59;1176;-69
2022/03/25 18:04:55;;;;;;;;;;;;;;;;;;2210182;67;1941;-69